Time;durP1;ratioP1;P1;durP2;ratioP2;P2;SDS_P1;SDS_P2;PMS_P1;PMS_P2;Temp;Humidity;BMP_temperature;BMP_pressure;BME280_temperature;BME280_humidity;BME280_pressure;Samples;Min_cycle;Max_cycle;Signal;HPM_P1;HPM_P2
2020/07/22 00:06:05;;;;;;;0;0;;;;;;;0;0;0;;;;
2020/07/22 00:15:28;;;;;;;0;0;;;;;;;0;0;0;;;;
2020/07/22 00:24:51;;;;;;;0;0;;;;;;;0;0;0;;;;
2020/07/22 00:43:15;;;;;;;0;0;;;;;;;0;0;0;;;;
2020/07/22 00:52:35;;;;;;;0;0;;;;;;;0;0;0;;;;
2020/07/22 01:01:58;;;;;;;0;0;;;;;;;0;0;0;;;;
2020/07/22 01:11:21;;;;;;;0;0;;;;;;;0;0;0;;;;
2020/07/22 01:20:45;;;;;;;0;0;;;;;;;0;0;0;;;;
2020/07/22 01:30:08;;;;;;;0;0;;;;;;;0;0;0;;;;
2020/07/22 01:39:31;;;;;;;0;0;;;;;;;0;0;0;;;;
2020/07/22 01:48:54;;;;;;;0;0;;;;;;;0;0;0;;;;
2020/07/22 01:58:17;;;;;;;0;0;;;;;;;0;0;0;;;;
2020/07/22 02:07:41;;;;;;;0;0;;;;;;;0;0;0;;;;
2020/07/22 02:17:04;;;;;;;0;0;;;;;;;0;0;0;;;;
2020/07/22 02:26:27;;;;;;;0;0;;;;;;;0;0;0;;;;
2020/07/22 02:35:50;;;;;;;0;0;;;;;;;0;0;0;;;;
2020/07/22 02:43:03;;;;;;;0;0;;;;;;;0;0;0;;;;
2020/07/22 02:46:05;;;;;;;0;0;;;;;;;0;0;0;;;;
2020/07/22 02:47:06;;;;;;;0;0;;;;;;;0;0;0;;;;
2020/07/22 02:48:06;;;;;;;0;0;;;;;;;0;0;0;;;;
2020/07/22 02:49:07;;;;;;;0;0;;;;;;;0;0;0;;;;
2020/07/22 02:50:07;;;;;;;0;0;;;;;;;0;0;0;;;;
2020/07/22 02:51:08;;;;;;;0;0;;;;;;;0;0;0;;;;
2020/07/22 02:52:08;;;;;;;0;0;;;;;;;0;0;0;;;;
2020/07/22 02:53:09;;;;;;;0;0;;;;;;;0;0;0;;;;
2020/07/22 02:54:09;;;;;;;0;0;;;;;;;0;0;0;;;;
2020/07/22 02:55:10;;;;;;;0;0;;;;;;;0;0;0;;;;
2020/07/22 02:56:10;;;;;;;0;0;;;;;;;0;0;0;;;;
2020/07/22 02:57:11;;;;;;;0;0;;;;;;;0;0;0;;;;
2020/07/22 02:58:12;;;;;;;0;0;;;;;;;0;0;0;;;;
2020/07/22 02:59:12;;;;;;;0;0;;;;;;;0;0;0;;;;
2020/07/22 03:00:13;;;;;;;0;0;;;;;;;0;0;0;;;;
2020/07/22 03:01:14;;;;;;;0;0;;;;;;;0;0;0;;;;
2020/07/22 03:02:14;;;;;;;0;0;;;;;;;0;0;0;;;;
2020/07/22 03:03:15;;;;;;;0;0;;;;;;;0;0;0;;;;
2020/07/22 03:04:19;;;;;;;0;0;;;;;;;0;0;0;;;;
2020/07/22 03:05:19;;;;;;;0;0;;;;;;;0;0;0;;;;
2020/07/22 03:06:20;;;;;;;0;0;;;;;;;0;0;0;;;;
2020/07/22 03:07:20;;;;;;;0;0;;;;;;;0;0;0;;;;
2020/07/22 03:08:20;;;;;;;0;0;;;;;;;0;0;0;;;;
2020/07/22 03:09:21;;;;;;;0;0;;;;;;;0;0;0;;;;
2020/07/22 03:10:21;;;;;;;0;0;;;;;;;0;0;0;;;;
2020/07/22 03:11:28;;;;;;;0;0;;;;;;;0;0;0;;;;
2020/07/22 03:12:29;;;;;;;0;0;;;;;;;0;0;0;;;;
2020/07/22 03:13:30;;;;;;;0;0;;;;;;;0;0;0;;;;
2020/07/22 03:14:30;;;;;;;0;0;;;;;;;0;0;0;;;;
2020/07/22 03:15:30;;;;;;;0;0;;;;;;;0;0;0;;;;
2020/07/22 03:16:31;;;;;;;0;0;;;;;;;0;0;0;;;;
2020/07/22 03:17:32;;;;;;;0;0;;;;;;;0;0;0;;;;
2020/07/22 03:18:32;;;;;;;0;0;;;;;;;0;0;0;;;;
2020/07/22 03:19:33;;;;;;;0;0;;;;;;;0;0;0;;;;
2020/07/22 03:20:33;;;;;;;0;0;;;;;;;0;0;0;;;;
2020/07/22 03:21:34;;;;;;;0;0;;;;;;;0;0;0;;;;
2020/07/22 03:22:34;;;;;;;0;0;;;;;;;0;0;0;;;;
2020/07/22 03:23:34;;;;;;;0;0;;;;;;;0;0;0;;;;
2020/07/22 03:24:35;;;;;;;0;0;;;;;;;0;0;0;;;;
2020/07/22 03:25:35;;;;;;;0;0;;;;;;;0;0;0;;;;
2020/07/22 03:26:36;;;;;;;0;0;;;;;;;0;0;0;;;;
2020/07/22 03:27:36;;;;;;;0;0;;;;;;;0;0;0;;;;
2020/07/22 03:28:37;;;;;;;0;0;;;;;;;0;0;0;;;;
2020/07/22 03:29:38;;;;;;;0;0;;;;;;;0;0;0;;;;
2020/07/22 03:30:38;;;;;;;0;0;;;;;;;0;0;0;;;;
2020/07/22 03:31:39;;;;;;;0;0;;;;;;;0;0;0;;;;
2020/07/22 03:32:39;;;;;;;0;0;;;;;;;0;0;0;;;;
2020/07/22 03:33:40;;;;;;;0;0;;;;;;;0;0;0;;;;
2020/07/22 03:34:40;;;;;;;0;0;;;;;;;0;0;0;;;;
2020/07/22 03:35:41;;;;;;;0;0;;;;;;;0;0;0;;;;
2020/07/22 03:36:42;;;;;;;0;0;;;;;;;0;0;0;;;;
2020/07/22 03:37:42;;;;;;;0;0;;;;;;;0;0;0;;;;
2020/07/22 03:38:42;;;;;;;0;0;;;;;;;0;0;0;;;;
2020/07/22 03:39:43;;;;;;;0;0;;;;;;;0;0;0;;;;
2020/07/22 03:40:43;;;;;;;0;0;;;;;;;0;0;0;;;;
2020/07/22 03:41:44;;;;;;;0;0;;;;;;;0;0;0;;;;
2020/07/22 03:42:45;;;;;;;0;0;;;;;;;0;0;0;;;;
2020/07/22 03:43:45;;;;;;;0;0;;;;;;;0;0;0;;;;
2020/07/22 03:44:46;;;;;;;0;0;;;;;;;0;0;0;;;;
2020/07/22 03:45:46;;;;;;;0;0;;;;;;;0;0;0;;;;
2020/07/22 03:46:47;;;;;;;0;0;;;;;;;0;0;0;;;;
2020/07/22 03:47:47;;;;;;;0;0;;;;;;;0;0;0;;;;
2020/07/22 03:48:48;;;;;;;0;0;;;;;;;0;0;0;;;;
2020/07/22 03:49:49;;;;;;;0;0;;;;;;;0;0;0;;;;
2020/07/22 03:50:49;;;;;;;0;0;;;;;;;0;0;0;;;;
2020/07/22 03:51:50;;;;;;;0;0;;;;;;;0;0;0;;;;
2020/07/22 03:52:50;;;;;;;0;0;;;;;;;0;0;0;;;;
2020/07/22 03:53:51;;;;;;;0;0;;;;;;;0;0;0;;;;
2020/07/22 03:54:51;;;;;;;0;0;;;;;;;0;0;0;;;;
2020/07/22 03:55:52;;;;;;;0;0;;;;;;;0;0;0;;;;
2020/07/22 03:56:55;;;;;;;0;0;;;;;;;0;0;0;;;;
2020/07/22 03:57:57;;;;;;;0;0;;;;;;;0;0;0;;;;
2020/07/22 03:59:03;;;;;;;0;0;;;;;;;0;0;0;;;;
2020/07/22 04:00:03;;;;;;;0;0;;;;;;;0;0;0;;;;
2020/07/22 04:01:04;;;;;;;0;0;;;;;;;0;0;0;;;;
2020/07/22 04:02:05;;;;;;;0;0;;;;;;;0;0;0;;;;
2020/07/22 04:03:05;;;;;;;0;0;;;;;;;0;0;0;;;;
2020/07/22 04:04:06;;;;;;;0;0;;;;;;;0;0;0;;;;
2020/07/22 04:05:07;;;;;;;0;0;;;;;;;0;0;0;;;;
2020/07/22 04:06:08;;;;;;;0;0;;;;;;;0;0;0;;;;
2020/07/22 04:07:09;;;;;;;0;0;;;;;;;0;0;0;;;;
2020/07/22 04:08:09;;;;;;;0;0;;;;;;;0;0;0;;;;
2020/07/22 04:09:10;;;;;;;0;0;;;;;;;0;0;0;;;;
2020/07/22 04:10:10;;;;;;;0;0;;;;;;;0;0;0;;;;
2020/07/22 04:11:11;;;;;;;0;0;;;;;;;0;0;0;;;;
2020/07/22 04:12:12;;;;;;;0;0;;;;;;;0;0;0;;;;
2020/07/22 04:13:12;;;;;;;0;0;;;;;;;0;0;0;;;;
2020/07/22 04:14:13;;;;;;;0;0;;;;;;;0;0;0;;;;
2020/07/22 04:15:28;;;;;;;0;0;;;;;;;0;0;0;;;;
2020/07/22 04:16:36;;;;;;;0;0;;;;;;;0;0;0;;;;
2020/07/22 04:17:37;;;;;;;0;0;;;;;;;0;0;0;;;;
2020/07/22 04:18:38;;;;;;;0;0;;;;;;;0;0;0;;;;
2020/07/22 04:19:40;;;;;;;0;0;;;;;;;0;0;0;;;;
2020/07/22 04:20:40;;;;;;;0;0;;;;;;;0;0;0;;;;
2020/07/22 04:21:47;;;;;;;0;0;;;;;;;0;0;0;;;;
2020/07/22 04:22:48;;;;;;;0;0;;;;;;;0;0;0;;;;
2020/07/22 04:23:49;;;;;;;0;0;;;;;;;0;0;0;;;;
2020/07/22 04:24:50;;;;;;;0;0;;;;;;;0;0;0;;;;
2020/07/22 04:25:51;;;;;;;0;0;;;;;;;0;0;0;;;;
2020/07/22 04:26:52;;;;;;;0;0;;;;;;;0;0;0;;;;
2020/07/22 04:27:52;;;;;;;0;0;;;;;;;0;0;0;;;;
2020/07/22 04:28:54;;;;;;;0;0;;;;;;;0;0;0;;;;
2020/07/22 04:29:55;;;;;;;0;0;;;;;;;0;0;0;;;;
2020/07/22 04:30:55;;;;;;;0;0;;;;;;;0;0;0;;;;
2020/07/22 04:31:56;;;;;;;0;0;;;;;;;0;0;0;;;;
2020/07/22 04:32:57;;;;;;;0;0;;;;;;;0;0;0;;;;
2020/07/22 04:33:58;;;;;;;0;0;;;;;;;0;0;0;;;;
2020/07/22 04:34:58;;;;;;;0;0;;;;;;;0;0;0;;;;
2020/07/22 04:35:58;;;;;;;0;0;;;;;;;0;0;0;;;;
2020/07/22 04:36:59;;;;;;;0;0;;;;;;;0;0;0;;;;
2020/07/22 04:38:00;;;;;;;0;0;;;;;;;0;0;0;;;;
2020/07/22 04:39:00;;;;;;;0;0;;;;;;;0;0;0;;;;
2020/07/22 04:40:00;;;;;;;0;0;;;;;;;0;0;0;;;;
2020/07/22 04:41:01;;;;;;;0;0;;;;;;;0;0;0;;;;
2020/07/22 04:42:02;;;;;;;0;0;;;;;;;0;0;0;;;;
2020/07/22 04:43:02;;;;;;;0;0;;;;;;;0;0;0;;;;
2020/07/22 04:44:03;;;;;;;0;0;;;;;;;0;0;0;;;;
2020/07/22 04:45:03;;;;;;;0;0;;;;;;;0;0;0;;;;
2020/07/22 04:46:04;;;;;;;0;0;;;;;;;0;0;0;;;;
2020/07/22 04:47:04;;;;;;;0;0;;;;;;;0;0;0;;;;
2020/07/22 04:48:05;;;;;;;0;0;;;;;;;0;0;0;;;;
2020/07/22 04:49:05;;;;;;;0;0;;;;;;;0;0;0;;;;
2020/07/22 04:50:06;;;;;;;0;0;;;;;;;0;0;0;;;;
2020/07/22 04:51:06;;;;;;;0;0;;;;;;;0;0;0;;;;
2020/07/22 04:52:07;;;;;;;0;0;;;;;;;0;0;0;;;;
2020/07/22 04:53:07;;;;;;;0;0;;;;;;;0;0;0;;;;
2020/07/22 04:54:08;;;;;;;0;0;;;;;;;0;0;0;;;;
2020/07/22 04:55:08;;;;;;;0;0;;;;;;;0;0;0;;;;
2020/07/22 04:56:09;;;;;;;0;0;;;;;;;0;0;0;;;;
2020/07/22 04:57:09;;;;;;;0;0;;;;;;;0;0;0;;;;
2020/07/22 04:58:10;;;;;;;0;0;;;;;;;0;0;0;;;;
2020/07/22 04:59:10;;;;;;;0;0;;;;;;;0;0;0;;;;
2020/07/22 05:00:11;;;;;;;0;0;;;;;;;0;0;0;;;;
2020/07/22 05:01:11;;;;;;;0;0;;;;;;;0;0;0;;;;
2020/07/22 05:02:12;;;;;;;0;0;;;;;;;0;0;0;;;;
2020/07/22 05:03:12;;;;;;;0;0;;;;;;;0;0;0;;;;
2020/07/22 05:04:13;;;;;;;0;0;;;;;;;0;0;0;;;;
2020/07/22 05:05:13;;;;;;;0;0;;;;;;;0;0;0;;;;
2020/07/22 05:06:14;;;;;;;0;0;;;;;;;0;0;0;;;;
2020/07/22 05:07:14;;;;;;;0;0;;;;;;;0;0;0;;;;
2020/07/22 05:08:15;;;;;;;0;0;;;;;;;0;0;0;;;;
2020/07/22 05:09:16;;;;;;;0;0;;;;;;;0;0;0;;;;
2020/07/22 05:10:16;;;;;;;0;0;;;;;;;0;0;0;;;;
2020/07/22 05:11:17;;;;;;;0;0;;;;;;;0;0;0;;;;
2020/07/22 05:12:17;;;;;;;0;0;;;;;;;0;0;0;;;;
2020/07/22 05:13:18;;;;;;;0;0;;;;;;;0;0;0;;;;
2020/07/22 05:14:18;;;;;;;0;0;;;;;;;0;0;0;;;;
2020/07/22 05:15:19;;;;;;;0;0;;;;;;;0;0;0;;;;
2020/07/22 05:16:19;;;;;;;0;0;;;;;;;0;0;0;;;;
2020/07/22 05:17:19;;;;;;;0;0;;;;;;;0;0;0;;;;
2020/07/22 05:18:20;;;;;;;0;0;;;;;;;0;0;0;;;;
2020/07/22 05:19:20;;;;;;;0;0;;;;;;;0;0;0;;;;
2020/07/22 05:20:21;;;;;;;0;0;;;;;;;0;0;0;;;;
2020/07/22 05:21:21;;;;;;;0;0;;;;;;;0;0;0;;;;
2020/07/22 05:22:22;;;;;;;0;0;;;;;;;0;0;0;;;;
2020/07/22 05:23:22;;;;;;;0;0;;;;;;;0;0;0;;;;
2020/07/22 05:24:23;;;;;;;0;0;;;;;;;0;0;0;;;;
2020/07/22 05:25:23;;;;;;;0;0;;;;;;;0;0;0;;;;
2020/07/22 05:26:24;;;;;;;0;0;;;;;;;0;0;0;;;;
2020/07/22 05:27:24;;;;;;;0;0;;;;;;;0;0;0;;;;
2020/07/22 05:28:25;;;;;;;0;0;;;;;;;0;0;0;;;;
2020/07/22 05:29:25;;;;;;;0;0;;;;;;;0;0;0;;;;
2020/07/22 05:30:26;;;;;;;0;0;;;;;;;0;0;0;;;;
2020/07/22 05:31:26;;;;;;;0;0;;;;;;;0;0;0;;;;
2020/07/22 05:32:27;;;;;;;0;0;;;;;;;0;0;0;;;;
2020/07/22 05:33:27;;;;;;;0;0;;;;;;;0;0;0;;;;
2020/07/22 05:34:28;;;;;;;0;0;;;;;;;0;0;0;;;;
2020/07/22 05:35:28;;;;;;;0;0;;;;;;;0;0;0;;;;
2020/07/22 05:36:29;;;;;;;0;0;;;;;;;0;0;0;;;;
2020/07/22 05:37:29;;;;;;;0;0;;;;;;;0;0;0;;;;
2020/07/22 05:38:29;;;;;;;0;0;;;;;;;0;0;0;;;;
2020/07/22 05:39:30;;;;;;;0;0;;;;;;;0;0;0;;;;
2020/07/22 05:40:30;;;;;;;0;0;;;;;;;0;0;0;;;;
2020/07/22 05:41:31;;;;;;;0;0;;;;;;;0;0;0;;;;
2020/07/22 05:42:31;;;;;;;0;0;;;;;;;0;0;0;;;;
2020/07/22 05:43:32;;;;;;;0;0;;;;;;;0;0;0;;;;
2020/07/22 05:44:32;;;;;;;0;0;;;;;;;0;0;0;;;;
2020/07/22 05:45:33;;;;;;;0;0;;;;;;;0;0;0;;;;
2020/07/22 05:46:33;;;;;;;0;0;;;;;;;0;0;0;;;;
2020/07/22 05:47:34;;;;;;;0;0;;;;;;;0;0;0;;;;
2020/07/22 05:48:34;;;;;;;0;0;;;;;;;0;0;0;;;;
2020/07/22 05:49:35;;;;;;;0;0;;;;;;;0;0;0;;;;
2020/07/22 05:50:35;;;;;;;0;0;;;;;;;0;0;0;;;;
2020/07/22 05:51:36;;;;;;;0;0;;;;;;;0;0;0;;;;
2020/07/22 05:52:36;;;;;;;0;0;;;;;;;0;0;0;;;;
2020/07/22 05:53:36;;;;;;;0;0;;;;;;;0;0;0;;;;
2020/07/22 05:54:37;;;;;;;0;0;;;;;;;0;0;0;;;;
2020/07/22 05:55:37;;;;;;;0;0;;;;;;;0;0;0;;;;
2020/07/22 05:56:38;;;;;;;0;0;;;;;;;0;0;0;;;;
2020/07/22 05:57:38;;;;;;;0;0;;;;;;;0;0;0;;;;
2020/07/22 05:58:39;;;;;;;0;0;;;;;;;0;0;0;;;;
2020/07/22 05:59:39;;;;;;;0;0;;;;;;;0;0;0;;;;
2020/07/22 06:00:40;;;;;;;0;0;;;;;;;0;0;0;;;;
2020/07/22 06:01:40;;;;;;;0;0;;;;;;;0;0;0;;;;
2020/07/22 06:02:41;;;;;;;0;0;;;;;;;0;0;0;;;;
2020/07/22 06:03:41;;;;;;;0;0;;;;;;;0;0;0;;;;
2020/07/22 06:04:42;;;;;;;0;0;;;;;;;0;0;0;;;;
2020/07/22 06:05:42;;;;;;;0;0;;;;;;;0;0;0;;;;
2020/07/22 06:06:43;;;;;;;0;0;;;;;;;0;0;0;;;;
2020/07/22 06:07:44;;;;;;;0;0;;;;;;;0;0;0;;;;
2020/07/22 06:08:44;;;;;;;0;0;;;;;;;0;0;0;;;;
2020/07/22 06:09:44;;;;;;;0;0;;;;;;;0;0;0;;;;
2020/07/22 06:10:45;;;;;;;0;0;;;;;;;0;0;0;;;;
2020/07/22 06:11:45;;;;;;;0;0;;;;;;;0;0;0;;;;
2020/07/22 06:12:46;;;;;;;0;0;;;;;;;0;0;0;;;;
2020/07/22 06:13:46;;;;;;;0;0;;;;;;;0;0;0;;;;
2020/07/22 06:14:47;;;;;;;0;0;;;;;;;0;0;0;;;;
2020/07/22 06:15:47;;;;;;;0;0;;;;;;;0;0;0;;;;
2020/07/22 06:16:48;;;;;;;0;0;;;;;;;0;0;0;;;;
2020/07/22 06:17:48;;;;;;;0;0;;;;;;;0;0;0;;;;
2020/07/22 06:18:49;;;;;;;0;0;;;;;;;0;0;0;;;;
2020/07/22 06:19:49;;;;;;;0;0;;;;;;;0;0;0;;;;
2020/07/22 06:20:50;;;;;;;0;0;;;;;;;0;0;0;;;;
2020/07/22 06:21:50;;;;;;;0;0;;;;;;;0;0;0;;;;
2020/07/22 06:22:51;;;;;;;0;0;;;;;;;0;0;0;;;;
2020/07/22 06:23:51;;;;;;;0;0;;;;;;;0;0;0;;;;
2020/07/22 06:24:52;;;;;;;0;0;;;;;;;0;0;0;;;;
2020/07/22 06:25:52;;;;;;;0;0;;;;;;;0;0;0;;;;
2020/07/22 06:26:52;;;;;;;0;0;;;;;;;0;0;0;;;;
2020/07/22 06:27:53;;;;;;;0;0;;;;;;;0;0;0;;;;
2020/07/22 06:28:53;;;;;;;0;0;;;;;;;0;0;0;;;;
2020/07/22 06:29:54;;;;;;;0;0;;;;;;;0;0;0;;;;
2020/07/22 06:30:54;;;;;;;0;0;;;;;;;0;0;0;;;;
2020/07/22 06:31:55;;;;;;;0;0;;;;;;;0;0;0;;;;
2020/07/22 06:32:55;;;;;;;0;0;;;;;;;0;0;0;;;;
2020/07/22 06:33:56;;;;;;;0;0;;;;;;;0;0;0;;;;
2020/07/22 06:34:56;;;;;;;0;0;;;;;;;0;0;0;;;;
2020/07/22 06:35:57;;;;;;;0;0;;;;;;;0;0;0;;;;
2020/07/22 06:36:57;;;;;;;0;0;;;;;;;0;0;0;;;;
2020/07/22 06:37:58;;;;;;;0;0;;;;;;;0;0;0;;;;
2020/07/22 06:38:58;;;;;;;0;0;;;;;;;0;0;0;;;;
2020/07/22 06:39:59;;;;;;;0;0;;;;;;;0;0;0;;;;
2020/07/22 06:40:59;;;;;;;0;0;;;;;;;0;0;0;;;;
2020/07/22 06:42:00;;;;;;;0;0;;;;;;;0;0;0;;;;
2020/07/22 06:43:00;;;;;;;0;0;;;;;;;0;0;0;;;;
2020/07/22 06:44:01;;;;;;;0;0;;;;;;;0;0;0;;;;
2020/07/22 06:45:01;;;;;;;0;0;;;;;;;0;0;0;;;;
2020/07/22 06:46:02;;;;;;;0;0;;;;;;;0;0;0;;;;
2020/07/22 06:47:02;;;;;;;0;0;;;;;;;0;0;0;;;;
2020/07/22 06:48:03;;;;;;;0;0;;;;;;;0;0;0;;;;
2020/07/22 06:49:03;;;;;;;0;0;;;;;;;0;0;0;;;;
2020/07/22 06:50:04;;;;;;;0;0;;;;;;;0;0;0;;;;
2020/07/22 06:51:04;;;;;;;0;0;;;;;;;0;0;0;;;;
2020/07/22 06:52:04;;;;;;;0;0;;;;;;;0;0;0;;;;
2020/07/22 06:53:05;;;;;;;0;0;;;;;;;0;0;0;;;;
2020/07/22 06:54:06;;;;;;;0;0;;;;;;;0;0;0;;;;
2020/07/22 06:55:06;;;;;;;0;0;;;;;;;0;0;0;;;;
2020/07/22 06:56:06;;;;;;;0;0;;;;;;;0;0;0;;;;
2020/07/22 06:57:07;;;;;;;0;0;;;;;;;0;0;0;;;;
2020/07/22 06:58:07;;;;;;;0;0;;;;;;;0;0;0;;;;
2020/07/22 06:59:08;;;;;;;0;0;;;;;;;0;0;0;;;;
2020/07/22 07:00:08;;;;;;;0;0;;;;;;;0;0;0;;;;
2020/07/22 07:01:09;;;;;;;0;0;;;;;;;0;0;0;;;;
2020/07/22 07:02:09;;;;;;;0;0;;;;;;;0;0;0;;;;
2020/07/22 07:03:10;;;;;;;0;0;;;;;;;0;0;0;;;;
2020/07/22 07:04:10;;;;;;;0;0;;;;;;;0;0;0;;;;
2020/07/22 07:05:11;;;;;;;0;0;;;;;;;0;0;0;;;;
2020/07/22 07:06:12;;;;;;;0;0;;;;;;;0;0;0;;;;
2020/07/22 07:07:12;;;;;;;0;0;;;;;;;0;0;0;;;;
2020/07/22 07:08:13;;;;;;;0;0;;;;;;;0;0;0;;;;
2020/07/22 07:09:13;;;;;;;0;0;;;;;;;0;0;0;;;;
2020/07/22 07:10:14;;;;;;;0;0;;;;;;;0;0;0;;;;
2020/07/22 07:11:14;;;;;;;0;0;;;;;;;0;0;0;;;;
2020/07/22 07:12:15;;;;;;;6.800001;4.400001;;;;;;;23;58.30664;95721.95;;;;
2020/07/22 07:13:15;;;;;;;6.800001;4.400001;;;;;;;23;58.30664;95721.95;;;;
2020/07/22 07:14:16;;;;;;;6.800001;4.400001;;;;;;;23;58.30664;95721.95;;;;
2020/07/22 07:15:16;;;;;;;6.800001;4.400001;;;;;;;23;58.30664;95721.95;;;;
2020/07/22 07:16:16;;;;;;;6.800001;4.400001;;;;;;;23;58.30664;95721.95;;;;
2020/07/22 07:17:17;;;;;;;6.800001;4.400001;;;;;;;23;58.30664;95721.95;;;;
2020/07/22 07:18:18;;;;;;;6.800001;4.400001;;;;;;;23;58.30664;95721.95;;;;
2020/07/22 07:19:18;;;;;;;6.800001;4.400001;;;;;;;23;58.30664;95721.95;;;;
2020/07/22 07:20:18;;;;;;;6.800001;4.400001;;;;;;;23;58.30664;95721.95;;;;
2020/07/22 07:21:19;;;;;;;6.800001;4.400001;;;;;;;23;58.30664;95721.95;;;;
2020/07/22 07:22:19;;;;;;;7.250001;4.550001;;;;;;;23.94;58.01855;95727.68;;;;
2020/07/22 07:23:20;;;;;;;7.250001;4.550001;;;;;;;23.94;58.01855;95727.68;;;;
2020/07/22 07:24:20;;;;;;;7.250001;4.550001;;;;;;;23.94;58.01855;95727.68;;;;
2020/07/22 07:25:21;;;;;;;7.250001;4.550001;;;;;;;23.94;58.01855;95727.68;;;;
2020/07/22 07:26:21;;;;;;;7.250001;4.550001;;;;;;;23.94;58.01855;95727.68;;;;
2020/07/22 07:27:22;;;;;;;7.250001;4.550001;;;;;;;23.94;58.01855;95727.68;;;;
2020/07/22 07:28:22;;;;;;;7.250001;4.550001;;;;;;;23.94;58.01855;95727.68;;;;
2020/07/22 07:29:23;;;;;;;7.250001;4.550001;;;;;;;23.94;58.01855;95727.68;;;;
2020/07/22 07:30:23;;;;;;;7.250001;4.550001;;;;;;;23.94;58.01855;95727.68;;;;
2020/07/22 07:31:24;;;;;;;7.250001;4.550001;;;;;;;23.94;58.01855;95727.68;;;;
2020/07/22 07:32:24;;;;;;;7.250001;4.550001;;;;;;;23.94;58.01855;95727.68;;;;
2020/07/22 07:33:25;;;;;;;7.6;4.5;;;;;;;24.64;57.16504;95739.47;;;;
2020/07/22 07:34:25;;;;;;;7.6;4.5;;;;;;;24.64;57.16504;95739.47;;;;
2020/07/22 07:35:26;;;;;;;7.6;4.5;;;;;;;24.64;57.16504;95739.47;;;;
2020/07/22 07:36:26;;;;;;;7.6;4.5;;;;;;;24.64;57.16504;95739.47;;;;
2020/07/22 07:37:27;;;;;;;7.6;4.5;;;;;;;24.64;57.16504;95739.47;;;;
2020/07/22 07:38:27;;;;;;;7.6;4.5;;;;;;;24.64;57.16504;95739.47;;;;
2020/07/22 07:39:28;;;;;;;7.6;4.5;;;;;;;24.64;57.16504;95739.47;;;;
2020/07/22 07:40:28;;;;;;;7.6;4.5;;;;;;;24.64;57.16504;95739.47;;;;
2020/07/22 07:41:29;;;;;;;7.6;4.5;;;;;;;24.64;57.16504;95739.47;;;;
2020/07/22 07:42:29;;;;;;;7.6;4.5;;;;;;;24.64;57.16504;95739.47;;;;
2020/07/22 07:43:30;;;;;;;7.6;4.5;;;;;;;24.64;57.16504;95739.47;;;;
2020/07/22 07:44:30;;;;;;;5.45;4.2;;;;;;;25.48;56.04785;95739.53;;;;
2020/07/22 07:45:31;;;;;;;5.45;4.2;;;;;;;25.48;56.04785;95739.53;;;;
2020/07/22 07:46:35;;;;;;;5.45;4.2;;;;;;;25.48;56.04785;95739.53;;;;
2020/07/22 07:47:35;;;;;;;5.45;4.2;;;;;;;25.48;56.04785;95739.53;;;;
2020/07/22 07:48:36;;;;;;;5.45;4.2;;;;;;;25.48;56.04785;95739.53;;;;
2020/07/22 07:49:36;;;;;;;5.45;4.2;;;;;;;25.48;56.04785;95739.53;;;;
2020/07/22 07:51:42;;;;;;;5.45;4.2;;;;;;;25.48;56.04785;95739.53;;;;
2020/07/22 07:52:42;;;;;;;5.45;4.2;;;;;;;25.48;56.04785;95739.53;;;;
2020/07/22 07:53:58;;;;;;;5.45;4.2;;;;;;;25.48;56.04785;95739.53;;;;
2020/07/22 07:54:59;;;;;;;5.55;4.2;;;;;;;25.63;56.5459;95741.75;;;;
2020/07/22 07:55:59;;;;;;;5.55;4.2;;;;;;;25.63;56.5459;95741.75;;;;
2020/07/22 07:57:00;;;;;;;5.55;4.2;;;;;;;25.63;56.5459;95741.75;;;;
2020/07/22 07:58:00;;;;;;;5.55;4.2;;;;;;;25.63;56.5459;95741.75;;;;
2020/07/22 07:59:01;;;;;;;5.55;4.2;;;;;;;25.63;56.5459;95741.75;;;;
2020/07/22 08:00:01;;;;;;;5.55;4.2;;;;;;;25.63;56.5459;95741.75;;;;
2020/07/22 08:01:02;;;;;;;5.55;4.2;;;;;;;25.63;56.5459;95741.75;;;;
2020/07/22 08:02:03;;;;;;;5.55;4.2;;;;;;;25.63;56.5459;95741.75;;;;
2020/07/22 08:03:03;;;;;;;5.55;4.2;;;;;;;25.63;56.5459;95741.75;;;;
2020/07/22 08:04:03;;;;;;;5.55;4.2;;;;;;;25.63;56.5459;95741.75;;;;
2020/07/22 08:05:04;;;;;;;4.6;3.8;;;;;;;25.78;56.33008;95742.85;;;;
2020/07/22 08:06:04;;;;;;;4.6;3.8;;;;;;;25.78;56.33008;95742.85;;;;
2020/07/22 08:07:05;;;;;;;4.6;3.8;;;;;;;25.78;56.33008;95742.85;;;;
2020/07/22 08:08:05;;;;;;;4.6;3.8;;;;;;;25.78;56.33008;95742.85;;;;
2020/07/22 08:09:06;;;;;;;4.6;3.8;;;;;;;25.78;56.33008;95742.85;;;;
2020/07/22 08:10:07;;;;;;;4.6;3.8;;;;;;;25.78;56.33008;95742.85;;;;
2020/07/22 08:11:07;;;;;;;4.6;3.8;;;;;;;25.78;56.33008;95742.85;;;;
2020/07/22 08:12:08;;;;;;;4.6;3.8;;;;;;;25.78;56.33008;95742.85;;;;
2020/07/22 08:13:08;;;;;;;4.6;3.8;;;;;;;25.78;56.33008;95742.85;;;;
2020/07/22 08:14:09;;;;;;;4.6;3.8;;;;;;;25.78;56.33008;95742.85;;;;
2020/07/22 08:15:09;;;;;;;4.6;3.8;;;;;;;25.78;56.33008;95742.85;;;;
2020/07/22 08:16:10;;;;;;;5.6;3.9;;;;;;;26.39;55.0127;95739.89;;;;
2020/07/22 08:17:10;;;;;;;5.6;3.9;;;;;;;26.39;55.0127;95739.89;;;;
2020/07/22 08:18:10;;;;;;;5.6;3.9;;;;;;;26.39;55.0127;95739.89;;;;
2020/07/22 08:19:11;;;;;;;5.6;3.9;;;;;;;26.39;55.0127;95739.89;;;;
2020/07/22 08:20:12;;;;;;;5.6;3.9;;;;;;;26.39;55.0127;95739.89;;;;
2020/07/22 08:21:12;;;;;;;5.6;3.9;;;;;;;26.39;55.0127;95739.89;;;;
2020/07/22 08:22:13;;;;;;;5.6;3.9;;;;;;;26.39;55.0127;95739.89;;;;
2020/07/22 08:23:13;;;;;;;5.6;3.9;;;;;;;26.39;55.0127;95739.89;;;;
2020/07/22 08:24:14;;;;;;;5.6;3.9;;;;;;;26.39;55.0127;95739.89;;;;
2020/07/22 08:25:14;;;;;;;5.6;3.9;;;;;;;26.39;55.0127;95739.89;;;;
2020/07/22 08:26:15;;;;;;;6.5;3.65;;;;;;;26.36;54.17188;95749.27;;;;
2020/07/22 08:27:15;;;;;;;6.5;3.65;;;;;;;26.36;54.17188;95749.27;;;;
2020/07/22 08:28:16;;;;;;;6.5;3.65;;;;;;;26.36;54.17188;95749.27;;;;
2020/07/22 08:29:16;;;;;;;6.5;3.65;;;;;;;26.36;54.17188;95749.27;;;;
2020/07/22 08:30:17;;;;;;;6.5;3.65;;;;;;;26.36;54.17188;95749.27;;;;
2020/07/22 08:31:17;;;;;;;6.5;3.65;;;;;;;26.36;54.17188;95749.27;;;;
2020/07/22 08:32:18;;;;;;;6.5;3.65;;;;;;;26.36;54.17188;95749.27;;;;
2020/07/22 08:33:18;;;;;;;6.5;3.65;;;;;;;26.36;54.17188;95749.27;;;;
2020/07/22 08:34:19;;;;;;;6.5;3.65;;;;;;;26.36;54.17188;95749.27;;;;
2020/07/22 08:35:19;;;;;;;6.5;3.65;;;;;;;26.36;54.17188;95749.27;;;;
2020/07/22 08:36:20;;;;;;;6.5;3.65;;;;;;;26.36;54.17188;95749.27;;;;
2020/07/22 08:37:20;;;;;;;5.55;3.05;;;;;;;27.06;52.08691;95747.58;;;;
2020/07/22 08:38:20;;;;;;;5.55;3.05;;;;;;;27.06;52.08691;95747.58;;;;
2020/07/22 08:39:21;;;;;;;5.55;3.05;;;;;;;27.06;52.08691;95747.58;;;;
2020/07/22 08:40:21;;;;;;;5.55;3.05;;;;;;;27.06;52.08691;95747.58;;;;
2020/07/22 08:41:22;;;;;;;5.55;3.05;;;;;;;27.06;52.08691;95747.58;;;;
2020/07/22 08:42:22;;;;;;;5.55;3.05;;;;;;;27.06;52.08691;95747.58;;;;
2020/07/22 08:43:23;;;;;;;5.55;3.05;;;;;;;27.06;52.08691;95747.58;;;;
2020/07/22 08:44:23;;;;;;;5.55;3.05;;;;;;;27.06;52.08691;95747.58;;;;
2020/07/22 08:45:24;;;;;;;5.55;3.05;;;;;;;27.06;52.08691;95747.58;;;;
2020/07/22 08:46:24;;;;;;;5.55;3.05;;;;;;;27.06;52.08691;95747.58;;;;
2020/07/22 08:47:25;;;;;;;4.449999;3.1;;;;;;;28.9;49.73828;95755.46;;;;
2020/07/22 08:48:26;;;;;;;4.449999;3.1;;;;;;;28.9;49.73828;95755.46;;;;
2020/07/22 08:49:26;;;;;;;4.449999;3.1;;;;;;;28.9;49.73828;95755.46;;;;
2020/07/22 08:50:27;;;;;;;4.449999;3.1;;;;;;;28.9;49.73828;95755.46;;;;
2020/07/22 08:51:27;;;;;;;4.449999;3.1;;;;;;;28.9;49.73828;95755.46;;;;
2020/07/22 08:52:27;;;;;;;4.449999;3.1;;;;;;;28.9;49.73828;95755.46;;;;
2020/07/22 08:53:28;;;;;;;4.449999;3.1;;;;;;;28.9;49.73828;95755.46;;;;
2020/07/22 08:54:28;;;;;;;4.449999;3.1;;;;;;;28.9;49.73828;95755.46;;;;
2020/07/22 08:55:29;;;;;;;4.449999;3.1;;;;;;;28.9;49.73828;95755.46;;;;
2020/07/22 08:56:29;;;;;;;4.449999;3.1;;;;;;;28.9;49.73828;95755.46;;;;
2020/07/22 08:57:30;;;;;;;4.449999;3.1;;;;;;;28.9;49.73828;95755.46;;;;
2020/07/22 08:58:30;;;;;;;4.449999;3.1;;;;;;;28.9;49.73828;95755.46;;;;
2020/07/22 08:59:31;;;;;;;4.449999;3.1;;;;;;;28.9;49.73828;95755.46;;;;
2020/07/22 09:00:31;;;;;;;4.449999;3.1;;;;;;;28.9;49.73828;95755.46;;;;
2020/07/22 09:01:32;;;;;;;4.449999;3.1;;;;;;;28.9;49.73828;95755.46;;;;
2020/07/22 09:02:32;;;;;;;4.449999;3.1;;;;;;;28.9;49.73828;95755.46;;;;
2020/07/22 09:03:33;;;;;;;4.449999;3.1;;;;;;;28.9;49.73828;95755.46;;;;
2020/07/22 09:04:33;;;;;;;4.449999;3.1;;;;;;;28.9;49.73828;95755.46;;;;
2020/07/22 09:05:34;;;;;;;4.449999;3.1;;;;;;;28.9;49.73828;95755.46;;;;
2020/07/22 09:06:34;;;;;;;4.449999;3.1;;;;;;;28.9;49.73828;95755.46;;;;
2020/07/22 09:07:35;;;;;;;4.449999;3.1;;;;;;;28.9;49.73828;95755.46;;;;
2020/07/22 09:08:35;;;;;;;4.449999;3.1;;;;;;;28.9;49.73828;95755.46;;;;
2020/07/22 09:09:36;;;;;;;3.5;3.2;;;;;;;33.58;42.52344;95753.75;;;;
2020/07/22 09:10:36;;;;;;;3.5;3.2;;;;;;;33.58;42.52344;95753.75;;;;
2020/07/22 09:11:37;;;;;;;3.5;3.2;;;;;;;33.58;42.52344;95753.75;;;;
2020/07/22 09:12:37;;;;;;;3.5;3.2;;;;;;;33.58;42.52344;95753.75;;;;
2020/07/22 09:13:38;;;;;;;3.5;3.2;;;;;;;33.58;42.52344;95753.75;;;;
2020/07/22 09:14:38;;;;;;;3.5;3.2;;;;;;;33.58;42.52344;95753.75;;;;
2020/07/22 09:15:39;;;;;;;3.5;3.2;;;;;;;33.58;42.52344;95753.75;;;;
2020/07/22 09:16:39;;;;;;;3.5;3.2;;;;;;;33.58;42.52344;95753.75;;;;
2020/07/22 09:17:40;;;;;;;3.5;3.2;;;;;;;33.58;42.52344;95753.75;;;;
2020/07/22 09:18:40;;;;;;;3.5;3.2;;;;;;;33.58;42.52344;95753.75;;;;
2020/07/22 09:19:41;;;;;;;3.9;3.05;;;;;;;36.05;38.56543;95745.4;;;;
2020/07/22 09:20:41;;;;;;;3.9;3.05;;;;;;;36.05;38.56543;95745.4;;;;
2020/07/22 09:21:42;;;;;;;3.9;3.05;;;;;;;36.05;38.56543;95745.4;;;;
2020/07/22 09:22:42;;;;;;;3.9;3.05;;;;;;;36.05;38.56543;95745.4;;;;
2020/07/22 09:23:43;;;;;;;3.9;3.05;;;;;;;36.05;38.56543;95745.4;;;;
2020/07/22 09:24:43;;;;;;;3.9;3.05;;;;;;;36.05;38.56543;95745.4;;;;
2020/07/22 09:25:44;;;;;;;3.9;3.05;;;;;;;36.05;38.56543;95745.4;;;;
2020/07/22 09:26:44;;;;;;;3.9;3.05;;;;;;;36.05;38.56543;95745.4;;;;
2020/07/22 09:27:45;;;;;;;3.9;3.05;;;;;;;36.05;38.56543;95745.4;;;;
2020/07/22 09:28:45;;;;;;;3.9;3.05;;;;;;;36.05;38.56543;95745.4;;;;
2020/07/22 09:29:46;;;;;;;3.9;3.05;;;;;;;36.05;38.56543;95745.4;;;;
2020/07/22 09:30:46;;;;;;;3.3;3;;;;;;;37.77;35.4541;95747.16;;;;
2020/07/22 09:31:47;;;;;;;3.3;3;;;;;;;37.77;35.4541;95747.16;;;;
2020/07/22 09:32:47;;;;;;;3.3;3;;;;;;;37.77;35.4541;95747.16;;;;
2020/07/22 09:33:47;;;;;;;3.3;3;;;;;;;37.77;35.4541;95747.16;;;;
2020/07/22 09:34:48;;;;;;;3.3;3;;;;;;;37.77;35.4541;95747.16;;;;
2020/07/22 09:35:49;;;;;;;3.3;3;;;;;;;37.77;35.4541;95747.16;;;;
2020/07/22 09:36:49;;;;;;;3.3;3;;;;;;;37.77;35.4541;95747.16;;;;
2020/07/22 09:37:50;;;;;;;3.3;3;;;;;;;37.77;35.4541;95747.16;;;;
2020/07/22 09:38:50;;;;;;;3.3;3;;;;;;;37.77;35.4541;95747.16;;;;
2020/07/22 09:39:51;;;;;;;3.3;3;;;;;;;37.77;35.4541;95747.16;;;;
2020/07/22 09:40:51;;;;;;;4.5;2.750001;;;;;;;39.25;32.83105;95739.7;;;;
2020/07/22 09:41:52;;;;;;;4.5;2.750001;;;;;;;39.25;32.83105;95739.7;;;;
2020/07/22 09:42:52;;;;;;;4.5;2.750001;;;;;;;39.25;32.83105;95739.7;;;;
2020/07/22 09:43:53;;;;;;;4.5;2.750001;;;;;;;39.25;32.83105;95739.7;;;;
2020/07/22 09:44:53;;;;;;;4.5;2.750001;;;;;;;39.25;32.83105;95739.7;;;;
2020/07/22 09:45:54;;;;;;;4.5;2.750001;;;;;;;39.25;32.83105;95739.7;;;;
2020/07/22 09:46:54;;;;;;;4.5;2.750001;;;;;;;39.25;32.83105;95739.7;;;;
2020/07/22 09:47:55;;;;;;;4.5;2.750001;;;;;;;39.25;32.83105;95739.7;;;;
2020/07/22 09:48:55;;;;;;;4.5;2.750001;;;;;;;39.25;32.83105;95739.7;;;;